sensor_id;sensor_type;location;lat;lon;timestamp;temperature;humidity
14521;DHT22;7347;50.844;4.490;2022-09-12T10:11:21;22.60;99.90
14521;DHT22;7347;50.844;4.490;2022-09-12T10:13:53;23.20;99.90
14521;DHT22;7347;50.844;4.490;2022-09-12T10:16:23;23.40;99.90
14521;DHT22;7347;50.844;4.490;2022-09-12T10:18:51;23.50;99.90
14521;DHT22;7347;50.844;4.490;2022-09-12T10:21:28;23.70;99.90
14521;DHT22;7347;50.844;4.490;2022-09-12T10:24:18;23.70;99.90
14521;DHT22;7347;50.844;4.490;2022-09-12T10:26:50;23.60;99.90
14521;DHT22;7347;50.844;4.490;2022-09-12T10:29:22;23.40;99.90
14521;DHT22;7347;50.844;4.490;2022-09-12T10:31:52;23.40;99.90
14521;DHT22;7347;50.844;4.490;2022-09-12T10:34:26;23.40;99.90
14521;DHT22;7347;50.844;4.490;2022-09-12T10:36:59;23.40;99.90
14521;DHT22;7347;50.844;4.490;2022-09-12T10:39:27;23.60;99.90
14521;DHT22;7347;50.844;4.490;2022-09-12T10:41:56;23.70;99.90
14521;DHT22;7347;50.844;4.490;2022-09-12T10:47:45;23.50;99.90
14521;DHT22;7347;50.844;4.490;2022-09-12T10:50:30;23.50;99.90
14521;DHT22;7347;50.844;4.490;2022-09-12T10:53:17;23.60;99.90
14521;DHT22;7347;50.844;4.490;2022-09-12T10:55:59;23.70;99.90
14521;DHT22;7347;50.844;4.490;2022-09-12T10:58:41;23.70;99.90
14521;DHT22;7347;50.844;4.490;2022-09-12T11:01:18;23.70;99.90
14521;DHT22;7347;50.844;4.490;2022-09-12T11:04:04;23.70;99.90
14521;DHT22;7347;50.844;4.490;2022-09-12T11:06:44;23.70;99.90
14521;DHT22;7347;50.844;4.490;2022-09-12T11:09:18;23.50;99.90
14521;DHT22;7347;50.844;4.490;2022-09-12T11:11:59;23.70;99.90
14521;DHT22;7347;50.844;4.490;2022-09-12T11:14:44;23.70;99.90
14521;DHT22;7347;50.844;4.490;2022-09-12T11:17:24;23.90;99.90
14521;DHT22;7347;50.844;4.490;2022-09-12T11:20:34;23.80;99.90
14521;DHT22;7347;50.844;4.490;2022-09-12T11:23:27;23.70;99.90
14521;DHT22;7347;50.844;4.490;2022-09-12T11:26:02;23.90;99.90
14521;DHT22;7347;50.844;4.490;2022-09-12T11:28:42;23.80;99.90
14521;DHT22;7347;50.844;4.490;2022-09-12T11:31:32;23.80;99.90
14521;DHT22;7347;50.844;4.490;2022-09-12T11:34:07;24.00;99.90
14521;DHT22;7347;50.844;4.490;2022-09-12T11:36:40;24.10;99.90
14521;DHT22;7347;50.844;4.490;2022-09-12T11:39:14;24.20;99.90
14521;DHT22;7347;50.844;4.490;2022-09-12T11:41:42;24.40;99.90
14521;DHT22;7347;50.844;4.490;2022-09-12T11:44:16;24.40;99.90
14521;DHT22;7347;50.844;4.490;2022-09-12T11:46:46;24.40;99.90
14521;DHT22;7347;50.844;4.490;2022-09-12T11:49:20;24.40;99.90
14521;DHT22;7347;50.844;4.490;2022-09-12T11:51:52;24.50;99.90
14521;DHT22;7347;50.844;4.490;2022-09-12T11:54:25;24.50;99.90
14521;DHT22;7347;50.844;4.490;2022-09-12T11:57:02;24.20;99.90
14521;DHT22;7347;50.844;4.490;2022-09-12T11:59:38;24.20;99.90
14521;DHT22;7347;50.844;4.490;2022-09-12T12:02:11;24.20;99.90
14521;DHT22;7347;50.844;4.490;2022-09-12T12:04:47;24.20;99.90
14521;DHT22;7347;50.844;4.490;2022-09-12T12:07:17;24.30;99.90
14521;DHT22;7347;50.844;4.490;2022-09-12T12:09:48;24.40;99.90
14521;DHT22;7347;50.844;4.490;2022-09-12T12:12:19;24.50;99.90
14521;DHT22;7347;50.844;4.490;2022-09-12T12:14:49;24.70;99.90
14521;DHT22;7347;50.844;4.490;2022-09-12T12:17:19;24.80;99.90
14521;DHT22;7347;50.844;4.490;2022-09-12T12:19:56;24.80;99.90
14521;DHT22;7347;50.844;4.490;2022-09-12T12:22:24;24.90;99.90
14521;DHT22;7347;50.844;4.490;2022-09-12T12:25:07;25.00;99.90
14521;DHT22;7347;50.844;4.490;2022-09-12T12:27:52;25.20;99.90
14521;DHT22;7347;50.844;4.490;2022-09-12T12:33:54;25.20;99.90
14521;DHT22;7347;50.844;4.490;2022-09-12T12:36:34;25.10;99.90
14521;DHT22;7347;50.844;4.490;2022-09-12T12:42:03;24.70;99.90
14521;DHT22;7347;50.844;4.490;2022-09-12T12:44:47;24.80;99.90
14521;DHT22;7347;50.844;4.490;2022-09-12T12:47:16;24.90;99.90
14521;DHT22;7347;50.844;4.490;2022-09-12T12:49:52;25.00;99.90
14521;DHT22;7347;50.844;4.490;2022-09-12T12:52:20;25.20;99.90
14521;DHT22;7347;50.844;4.490;2022-09-12T12:54:53;25.20;99.90
14521;DHT22;7347;50.844;4.490;2022-09-12T12:57:29;25.30;99.90
14521;DHT22;7347;50.844;4.490;2022-09-12T12:59:59;25.30;99.90
14521;DHT22;7347;50.844;4.490;2022-09-12T13:02:30;25.40;99.90
14521;DHT22;7347;50.844;4.490;2022-09-12T13:05:01;25.60;99.90
14521;DHT22;7347;50.844;4.490;2022-09-12T13:07:31;25.70;99.90
14521;DHT22;7347;50.844;4.490;2022-09-12T13:09:59;25.70;99.90
14521;DHT22;7347;50.844;4.490;2022-09-12T13:12:29;25.60;99.90
14521;DHT22;7347;50.844;4.490;2022-09-12T13:14:58;25.70;99.90
14521;DHT22;7347;50.844;4.490;2022-09-12T13:17:35;25.70;99.90
14521;DHT22;7347;50.844;4.490;2022-09-12T13:20:20;25.60;99.90
14521;DHT22;7347;50.844;4.490;2022-09-12T13:22:50;25.50;99.90
14521;DHT22;7347;50.844;4.490;2022-09-12T13:25:27;25.50;99.90
14521;DHT22;7347;50.844;4.490;2022-09-12T13:28:05;25.50;99.90
14521;DHT22;7347;50.844;4.490;2022-09-12T13:30:35;25.60;99.90
14521;DHT22;7347;50.844;4.490;2022-09-12T13:33:12;25.80;99.90
14521;DHT22;7347;50.844;4.490;2022-09-12T13:38:44;25.70;99.90
14521;DHT22;7347;50.844;4.490;2022-09-12T13:41:24;25.70;99.90
14521;DHT22;7347;50.844;4.490;2022-09-12T13:43:56;25.80;99.90
14521;DHT22;7347;50.844;4.490;2022-09-12T13:46:27;25.80;99.90
14521;DHT22;7347;50.844;4.490;2022-09-12T13:48:56;26.00;99.90
14521;DHT22;7347;50.844;4.490;2022-09-12T13:51:26;25.80;99.90
14521;DHT22;7347;50.844;4.490;2022-09-12T13:53:57;26.00;99.90
14521;DHT22;7347;50.844;4.490;2022-09-12T13:56:25;26.00;99.90
14521;DHT22;7347;50.844;4.490;2022-09-12T13:58:53;25.70;99.90
14521;DHT22;7347;50.844;4.490;2022-09-12T14:01:22;25.70;99.90
14521;DHT22;7347;50.844;4.490;2022-09-12T14:03:51;25.80;99.50
14521;DHT22;7347;50.844;4.490;2022-09-12T14:06:42;25.80;99.90
14521;DHT22;7347;50.844;4.490;2022-09-12T14:09:15;26.00;99.90
14521;DHT22;7347;50.844;4.490;2022-09-12T14:11:42;26.10;99.50
14521;DHT22;7347;50.844;4.490;2022-09-12T14:14:19;26.30;99.90
14521;DHT22;7347;50.844;4.490;2022-09-12T14:16:52;26.50;99.90
14521;DHT22;7347;50.844;4.490;2022-09-12T14:19:20;26.30;98.80
14521;DHT22;7347;50.844;4.490;2022-09-12T14:21:51;26.20;99.90
14521;DHT22;7347;50.844;4.490;2022-09-12T14:24:19;26.00;99.90
14521;DHT22;7347;50.844;4.490;2022-09-12T14:26:49;26.00;98.70
14521;DHT22;7347;50.844;4.490;2022-09-12T14:29:16;25.80;98.30
14521;DHT22;7347;50.844;4.490;2022-09-12T14:31:43;26.00;99.40
14521;DHT22;7347;50.844;4.490;2022-09-12T14:34:12;26.20;99.30
14521;DHT22;7347;50.844;4.490;2022-09-12T14:36:42;26.20;98.50
14521;DHT22;7347;50.844;4.490;2022-09-12T14:39:19;26.10;98.20
14521;DHT22;7347;50.844;4.490;2022-09-12T14:41:48;25.90;98.60
14521;DHT22;7347;50.844;4.490;2022-09-12T14:44:17;25.90;98.00
14521;DHT22;7347;50.844;4.490;2022-09-12T14:46:45;26.00;99.10
14521;DHT22;7347;50.844;4.490;2022-09-12T14:49:16;26.10;98.60
14521;DHT22;7347;50.844;4.490;2022-09-12T14:51:52;26.00;98.70
14521;DHT22;7347;50.844;4.490;2022-09-12T14:54:38;26.10;99.10
14521;DHT22;7347;50.844;4.490;2022-09-12T14:57:31;26.30;99.90
14521;DHT22;7347;50.844;4.490;2022-09-12T15:00:19;26.10;98.60
14521;DHT22;7347;50.844;4.490;2022-09-12T15:02:47;26.00;99.00
14521;DHT22;7347;50.844;4.490;2022-09-12T15:05:18;26.10;99.00
14521;DHT22;7347;50.844;4.490;2022-09-12T15:07:52;26.20;98.00
14521;DHT22;7347;50.844;4.490;2022-09-12T15:10:22;26.20;97.40
14521;DHT22;7347;50.844;4.490;2022-09-12T15:13:09;26.20;98.40
14521;DHT22;7347;50.844;4.490;2022-09-12T15:15:40;26.10;99.50
14521;DHT22;7347;50.844;4.490;2022-09-12T15:18:07;26.20;98.50
14521;DHT22;7347;50.844;4.490;2022-09-12T15:20:36;26.10;98.30
14521;DHT22;7347;50.844;4.490;2022-09-12T15:23:04;26.00;98.70
14521;DHT22;7347;50.844;4.490;2022-09-12T15:25:33;25.90;98.20
14521;DHT22;7347;50.844;4.490;2022-09-12T15:28:00;25.90;98.00
14521;DHT22;7347;50.844;4.490;2022-09-12T15:30:27;25.70;97.50
14521;DHT22;7347;50.844;4.490;2022-09-12T15:32:54;25.60;97.50
14521;DHT22;7347;50.844;4.490;2022-09-12T15:35:22;25.70;97.60
14521;DHT22;7347;50.844;4.490;2022-09-12T15:37:50;25.80;98.20
14521;DHT22;7347;50.844;4.490;2022-09-12T15:40:17;25.80;98.60
14521;DHT22;7347;50.844;4.490;2022-09-12T15:42:45;25.90;97.60
14521;DHT22;7347;50.844;4.490;2022-09-12T15:45:18;25.80;97.80
14521;DHT22;7347;50.844;4.490;2022-09-12T15:47:46;25.70;97.70
14521;DHT22;7347;50.844;4.490;2022-09-12T15:50:12;25.70;97.40
14521;DHT22;7347;50.844;4.490;2022-09-12T15:52:40;25.60;97.10
14521;DHT22;7347;50.844;4.490;2022-09-12T15:55:13;25.60;97.00
14521;DHT22;7347;50.844;4.490;2022-09-12T15:57:40;25.50;97.20
14521;DHT22;7347;50.844;4.490;2022-09-12T16:00:10;25.50;97.60
14521;DHT22;7347;50.844;4.490;2022-09-12T16:02:37;25.50;98.10
14521;DHT22;7347;50.844;4.490;2022-09-12T16:05:05;25.50;98.10
14521;DHT22;7347;50.844;4.490;2022-09-12T16:07:31;25.50;98.00
14521;DHT22;7347;50.844;4.490;2022-09-12T16:09:58;25.50;97.70
14521;DHT22;7347;50.844;4.490;2022-09-12T16:12:25;25.50;98.40
14521;DHT22;7347;50.844;4.490;2022-09-12T16:14:52;25.50;98.30
14521;DHT22;7347;50.844;4.490;2022-09-12T16:17:20;25.40;99.00
14521;DHT22;7347;50.844;4.490;2022-09-12T16:19:47;25.20;98.90
14521;DHT22;7347;50.844;4.490;2022-09-12T16:22:13;25.20;99.20
14521;DHT22;7347;50.844;4.490;2022-09-12T16:24:40;25.10;99.90
14521;DHT22;7347;50.844;4.490;2022-09-12T16:27:07;25.10;99.90
14521;DHT22;7347;50.844;4.490;2022-09-12T16:29:34;25.10;99.90
14521;DHT22;7347;50.844;4.490;2022-09-12T16:32:01;25.10;99.90
14521;DHT22;7347;50.844;4.490;2022-09-12T16:34:29;25.00;99.90
14521;DHT22;7347;50.844;4.490;2022-09-12T16:36:56;25.00;99.90
14521;DHT22;7347;50.844;4.490;2022-09-12T16:39:22;24.90;99.90
14521;DHT22;7347;50.844;4.490;2022-09-12T16:41:49;24.90;99.90
14521;DHT22;7347;50.844;4.490;2022-09-12T16:44:16;24.90;99.90
14521;DHT22;7347;50.844;4.490;2022-09-12T16:46:43;24.90;99.90
14521;DHT22;7347;50.844;4.490;2022-09-12T16:49:10;24.90;99.90
14521;DHT22;7347;50.844;4.490;2022-09-12T16:51:38;24.90;99.90
14521;DHT22;7347;50.844;4.490;2022-09-12T16:54:09;24.90;99.90
14521;DHT22;7347;50.844;4.490;2022-09-12T16:56:36;24.90;99.90
14521;DHT22;7347;50.844;4.490;2022-09-12T16:59:03;24.90;99.90
14521;DHT22;7347;50.844;4.490;2022-09-12T17:01:30;24.90;99.90
14521;DHT22;7347;50.844;4.490;2022-09-12T17:03:59;24.80;99.90
14521;DHT22;7347;50.844;4.490;2022-09-12T17:06:27;24.80;99.90
14521;DHT22;7347;50.844;4.490;2022-09-12T17:08:58;24.80;99.90
14521;DHT22;7347;50.844;4.490;2022-09-12T17:11:28;24.80;99.90
14521;DHT22;7347;50.844;4.490;2022-09-12T17:13:56;24.70;99.90
14521;DHT22;7347;50.844;4.490;2022-09-12T17:16:24;24.70;99.90
14521;DHT22;7347;50.844;4.490;2022-09-12T17:18:51;24.70;99.90
14521;DHT22;7347;50.844;4.490;2022-09-12T17:21:19;24.60;99.90
14521;DHT22;7347;50.844;4.490;2022-09-12T17:23:46;24.50;99.90
14521;DHT22;7347;50.844;4.490;2022-09-12T17:26:15;24.40;99.90
14521;DHT22;7347;50.844;4.490;2022-09-12T17:28:42;24.30;99.90
14521;DHT22;7347;50.844;4.490;2022-09-12T17:31:11;24.20;99.90
14521;DHT22;7347;50.844;4.490;2022-09-12T17:33:39;24.00;99.90
14521;DHT22;7347;50.844;4.490;2022-09-12T17:36:08;23.90;99.90
14521;DHT22;7347;50.844;4.490;2022-09-12T17:38:36;23.80;99.90
14521;DHT22;7347;50.844;4.490;2022-09-12T17:41:05;23.70;99.90
14521;DHT22;7347;50.844;4.490;2022-09-12T17:43:34;23.60;99.90
14521;DHT22;7347;50.844;4.490;2022-09-12T17:46:02;23.50;99.90
14521;DHT22;7347;50.844;4.490;2022-09-12T17:48:29;23.40;99.90
14521;DHT22;7347;50.844;4.490;2022-09-12T17:50:56;23.20;99.90
14521;DHT22;7347;50.844;4.490;2022-09-12T17:53:24;23.10;99.90
14521;DHT22;7347;50.844;4.490;2022-09-12T17:55:51;23.00;99.90
14521;DHT22;7347;50.844;4.490;2022-09-12T17:58:18;22.90;99.90
14521;DHT22;7347;50.844;4.490;2022-09-12T18:00:46;22.80;99.90
14521;DHT22;7347;50.844;4.490;2022-09-12T18:03:30;22.80;99.90
14521;DHT22;7347;50.844;4.490;2022-09-12T18:05:59;22.60;99.90
14521;DHT22;7347;50.844;4.490;2022-09-12T18:08:26;22.50;99.90
14521;DHT22;7347;50.844;4.490;2022-09-12T18:10:53;22.40;99.90
14521;DHT22;7347;50.844;4.490;2022-09-12T18:13:28;22.30;99.90
14521;DHT22;7347;50.844;4.490;2022-09-12T18:16:03;22.10;99.90
14521;DHT22;7347;50.844;4.490;2022-09-12T18:18:30;22.00;99.90
14521;DHT22;7347;50.844;4.490;2022-09-12T18:20:56;21.90;99.90
14521;DHT22;7347;50.844;4.490;2022-09-12T18:23:23;21.90;99.90
14521;DHT22;7347;50.844;4.490;2022-09-12T18:25:56;21.80;99.90
14521;DHT22;7347;50.844;4.490;2022-09-12T18:28:22;21.70;99.90
14521;DHT22;7347;50.844;4.490;2022-09-12T18:30:49;21.60;99.90
14521;DHT22;7347;50.844;4.490;2022-09-12T18:33:18;21.50;99.90
14521;DHT22;7347;50.844;4.490;2022-09-12T18:35:45;21.40;99.90
14521;DHT22;7347;50.844;4.490;2022-09-12T18:38:11;21.40;99.90
14521;DHT22;7347;50.844;4.490;2022-09-12T18:40:38;21.30;99.90
14521;DHT22;7347;50.844;4.490;2022-09-12T18:43:05;21.10;99.90
14521;DHT22;7347;50.844;4.490;2022-09-12T18:45:32;21.00;99.90
14521;DHT22;7347;50.844;4.490;2022-09-12T18:47:59;20.90;99.90
14521;DHT22;7347;50.844;4.490;2022-09-12T18:50:28;20.80;99.90
14521;DHT22;7347;50.844;4.490;2022-09-12T18:52:55;20.80;99.90
14521;DHT22;7347;50.844;4.490;2022-09-12T18:55:22;20.80;99.90
14521;DHT22;7347;50.844;4.490;2022-09-12T18:57:49;20.70;99.90
14521;DHT22;7347;50.844;4.490;2022-09-12T19:00:16;20.60;99.90
14521;DHT22;7347;50.844;4.490;2022-09-12T19:02:43;20.70;99.90
14521;DHT22;7347;50.844;4.490;2022-09-12T19:05:10;20.60;99.90
14521;DHT22;7347;50.844;4.490;2022-09-12T19:07:39;20.60;99.90
14521;DHT22;7347;50.844;4.490;2022-09-12T19:10:06;20.50;99.90
14521;DHT22;7347;50.844;4.490;2022-09-12T19:12:33;20.40;99.90
14521;DHT22;7347;50.844;4.490;2022-09-12T19:15:00;20.30;99.90
14521;DHT22;7347;50.844;4.490;2022-09-12T19:17:27;20.30;99.90
14521;DHT22;7347;50.844;4.490;2022-09-12T19:19:54;20.30;99.90
14521;DHT22;7347;50.844;4.490;2022-09-12T19:22:21;20.20;99.90
14521;DHT22;7347;50.844;4.490;2022-09-12T19:24:49;20.20;99.90
14521;DHT22;7347;50.844;4.490;2022-09-12T19:27:16;20.10;99.90
14521;DHT22;7347;50.844;4.490;2022-09-12T19:29:42;20.00;99.90
14521;DHT22;7347;50.844;4.490;2022-09-12T19:32:09;20.00;99.90
14521;DHT22;7347;50.844;4.490;2022-09-12T19:34:36;19.90;99.90
14521;DHT22;7347;50.844;4.490;2022-09-12T19:37:03;19.90;99.90
14521;DHT22;7347;50.844;4.490;2022-09-12T19:39:29;19.80;99.90
14521;DHT22;7347;50.844;4.490;2022-09-12T19:41:58;19.80;99.90
14521;DHT22;7347;50.844;4.490;2022-09-12T19:44:25;19.70;99.90
14521;DHT22;7347;50.844;4.490;2022-09-12T19:46:53;19.70;99.90
14521;DHT22;7347;50.844;4.490;2022-09-12T19:49:20;19.70;99.90
14521;DHT22;7347;50.844;4.490;2022-09-12T19:51:47;19.60;99.90
14521;DHT22;7347;50.844;4.490;2022-09-12T19:54:14;19.60;99.90
14521;DHT22;7347;50.844;4.490;2022-09-12T19:56:40;19.50;99.90
14521;DHT22;7347;50.844;4.490;2022-09-12T19:59:09;19.50;99.90
14521;DHT22;7347;50.844;4.490;2022-09-12T20:01:36;19.40;99.90
14521;DHT22;7347;50.844;4.490;2022-09-12T20:04:03;19.20;99.90
14521;DHT22;7347;50.844;4.490;2022-09-12T20:06:31;19.20;99.90
14521;DHT22;7347;50.844;4.490;2022-09-12T20:08:57;19.30;99.90
14521;DHT22;7347;50.844;4.490;2022-09-12T20:11:24;19.30;99.90
14521;DHT22;7347;50.844;4.490;2022-09-12T20:13:51;19.20;99.90
14521;DHT22;7347;50.844;4.490;2022-09-12T20:16:20;19.10;99.90
14521;DHT22;7347;50.844;4.490;2022-09-12T20:18:52;19.10;99.90
14521;DHT22;7347;50.844;4.490;2022-09-12T20:21:21;19.10;99.90
14521;DHT22;7347;50.844;4.490;2022-09-12T20:23:49;19.10;99.90
14521;DHT22;7347;50.844;4.490;2022-09-12T20:26:16;19.10;99.90
14521;DHT22;7347;50.844;4.490;2022-09-12T20:28:44;19.10;99.90
14521;DHT22;7347;50.844;4.490;2022-09-12T20:31:14;19.00;99.90
14521;DHT22;7347;50.844;4.490;2022-09-12T20:33:42;19.00;99.90
14521;DHT22;7347;50.844;4.490;2022-09-12T20:36:11;19.00;99.90
14521;DHT22;7347;50.844;4.490;2022-09-12T20:38:39;19.00;99.90
14521;DHT22;7347;50.844;4.490;2022-09-12T20:41:07;18.80;99.90
14521;DHT22;7347;50.844;4.490;2022-09-12T20:43:35;18.80;99.90
14521;DHT22;7347;50.844;4.490;2022-09-12T20:46:04;18.80;99.90
14521;DHT22;7347;50.844;4.490;2022-09-12T20:48:31;18.70;99.90
14521;DHT22;7347;50.844;4.490;2022-09-12T20:50:59;18.70;99.90
14521;DHT22;7347;50.844;4.490;2022-09-12T20:53:27;18.70;99.90
14521;DHT22;7347;50.844;4.490;2022-09-12T20:55:54;18.60;99.90
14521;DHT22;7347;50.844;4.490;2022-09-12T20:58:21;18.60;99.90
14521;DHT22;7347;50.844;4.490;2022-09-12T21:00:49;18.60;99.90
14521;DHT22;7347;50.844;4.490;2022-09-12T21:03:16;18.60;99.90
14521;DHT22;7347;50.844;4.490;2022-09-12T21:05:43;18.50;99.90
14521;DHT22;7347;50.844;4.490;2022-09-12T21:08:12;18.50;99.90
14521;DHT22;7347;50.844;4.490;2022-09-12T21:10:39;18.50;99.90
14521;DHT22;7347;50.844;4.490;2022-09-12T21:13:07;18.40;99.90
14521;DHT22;7347;50.844;4.490;2022-09-12T21:15:34;18.40;99.90
14521;DHT22;7347;50.844;4.490;2022-09-12T21:18:01;18.40;99.90
14521;DHT22;7347;50.844;4.490;2022-09-12T21:20:28;18.40;99.90
14521;DHT22;7347;50.844;4.490;2022-09-12T21:22:55;18.40;99.90
14521;DHT22;7347;50.844;4.490;2022-09-12T21:25:23;18.30;99.90
14521;DHT22;7347;50.844;4.490;2022-09-12T21:27:50;18.30;99.90
14521;DHT22;7347;50.844;4.490;2022-09-12T21:30:17;18.30;99.90
14521;DHT22;7347;50.844;4.490;2022-09-12T21:32:44;18.20;99.90
